createdAt,value
2018-04-08T00:03:54.012Z,6.24
2018-04-08T00:09:44.913Z,5.23
2018-04-08T00:15:35.955Z,4.8
2018-04-08T00:21:26.699Z,5.59
2018-04-08T00:27:17.625Z,5.53
2018-04-08T00:33:08.547Z,5.18
2018-04-08T00:38:59.407Z,4.62
2018-04-08T00:44:50.295Z,4.21
2018-04-08T00:50:41.174Z,3.99
2018-04-08T00:56:32.092Z,4.68
2018-04-08T01:02:22.952Z,4.71
2018-04-08T01:08:13.903Z,4.13
2018-04-08T01:14:04.795Z,4.27
2018-04-08T01:19:55.645Z,4.96
2018-04-08T01:25:46.555Z,5.13
2018-04-08T01:31:37.438Z,5.29
2018-04-08T01:37:28.325Z,5.22
2018-04-08T01:43:19.239Z,5.33
2018-04-08T01:49:10.156Z,5.15
2018-04-08T01:55:01.004Z,5.06
2018-04-08T02:00:51.931Z,4.7
2018-04-08T02:06:42.811Z,5.04
2018-04-08T02:12:33.725Z,5.19
2018-04-08T02:18:24.682Z,5.15
2018-04-08T02:24:15.544Z,4.84
2018-04-08T02:30:06.431Z,5.15
2018-04-08T02:35:57.344Z,4.13
2018-04-08T02:41:48.197Z,3.94
2018-04-08T02:47:39.093Z,4.01
2018-04-08T02:53:30.022Z,4.75
2018-04-08T02:59:20.871Z,5.21
2018-04-08T03:05:11.760Z,6.08
2018-04-08T03:11:02.659Z,6.68
2018-04-08T03:16:53.660Z,5.57
2018-04-08T03:22:44.475Z,5.87
2018-04-08T03:28:35.373Z,5.61
2018-04-08T03:34:26.352Z,5.91
2018-04-08T03:40:17.160Z,5.26
2018-04-08T03:46:08.044Z,5.89
2018-04-08T03:51:58.953Z,5.84
2018-04-08T03:57:49.883Z,5.09
2018-04-08T04:03:40.762Z,4.97
2018-04-08T04:09:31.605Z,4.87
2018-04-08T04:15:22.480Z,4.9
2018-04-08T04:21:13.417Z,5.56
2018-04-08T04:27:04.295Z,5.25
2018-04-08T04:32:55.177Z,5.65
2018-04-08T04:38:46.060Z,5.66
2018-04-08T04:44:37.006Z,5.81
2018-04-08T04:50:27.881Z,5.84
2018-04-08T04:56:18.801Z,5.33
2018-04-08T05:02:09.695Z,5.33
2018-04-08T05:08:00.540Z,5.5
2018-04-08T05:13:51.471Z,6.3
2018-04-08T05:19:42.348Z,5.79
2018-04-08T05:25:33.261Z,5.49
2018-04-08T05:31:24.153Z,5.32
2018-04-08T05:37:15.032Z,5.83
2018-04-08T05:43:05.891Z,4.84
2018-04-08T05:48:56.791Z,4.98
2018-04-08T05:54:47.690Z,6.77
2018-04-08T06:00:38.593Z,7.58
2018-04-08T06:06:29.486Z,9.15
2018-04-08T06:12:20.386Z,11.87
2018-04-08T06:18:11.246Z,10.43
2018-04-08T06:24:02.129Z,9.61
2018-04-08T06:29:53.013Z,10.52
2018-04-08T06:35:43.896Z,12.38
2018-04-08T06:41:34.824Z,9.27
2018-04-08T06:47:25.693Z,9.52
2018-04-08T06:53:16.585Z,9.38
2018-04-08T06:59:07.534Z,13.61
2018-04-08T07:04:58.434Z,16.27
2018-04-08T07:10:49.286Z,14.56
2018-04-08T07:16:40.196Z,15.49
2018-04-08T07:22:31.090Z,19.54
2018-04-08T07:28:21.966Z,19.19
2018-04-08T07:34:12.846Z,20.49
2018-04-08T07:40:03.765Z,18.11
2018-04-08T07:45:54.652Z,18.11
2018-04-08T07:51:45.559Z,18.39
2018-04-08T07:57:36.512Z,15.77
2018-04-08T08:03:27.344Z,14.22
2018-04-08T08:09:18.255Z,10.23
2018-04-08T08:15:09.121Z,11.31
2018-04-08T08:21:00.032Z,21.72
2018-04-08T08:26:50.946Z,24.71
2018-04-08T08:32:41.832Z,19.93
2018-04-08T08:38:32.785Z,19.13
2018-04-08T08:44:23.657Z,16.02
2018-04-08T08:50:14.511Z,12.18
2018-04-08T08:56:05.413Z,7.12
2018-04-08T09:01:56.293Z,6.18
2018-04-08T09:07:47.208Z,5.15
2018-04-08T09:13:38.096Z,9.31
2018-04-08T09:19:29.027Z,10.19
2018-04-08T09:25:19.964Z,4.41
2018-04-08T09:31:10.795Z,5.56
2018-04-08T09:37:01.722Z,6.2
2018-04-08T09:42:52.568Z,4.15
2018-04-08T09:48:43.501Z,2.81
2018-04-08T09:54:34.380Z,3.72
2018-04-08T10:00:25.278Z,2.38
2018-04-08T10:06:16.196Z,2.65
2018-04-08T10:12:07.117Z,2.31
2018-04-08T10:17:57.973Z,2.53
2018-04-08T10:23:48.867Z,2.69
2018-04-08T10:29:39.750Z,2.34
2018-04-08T10:35:30.641Z,2.45
2018-04-08T10:41:21.554Z,2.41
2018-04-08T10:47:12.511Z,2.78
2018-04-08T10:53:03.368Z,3.29
2018-04-08T10:58:54.273Z,2.63
2018-04-08T11:04:45.198Z,5
2018-04-08T11:10:36.044Z,3.23
2018-04-08T11:16:27.162Z,7.43
2018-04-08T11:22:17.895Z,2.56
2018-04-08T11:28:08.767Z,8.6
2018-04-08T11:33:59.649Z,2.37
2018-04-08T11:39:50.546Z,3.09
2018-04-08T11:45:41.435Z,3.19
2018-04-08T11:51:32.318Z,2.59
2018-04-08T11:57:23.229Z,2.91
2018-04-08T12:03:14.159Z,2.33
2018-04-08T12:09:05.062Z,2.6
2018-04-08T12:14:55.981Z,2.96
2018-04-08T12:20:46.845Z,2.98
2018-04-08T12:26:37.744Z,2.71
2018-04-08T12:32:28.637Z,3.01
2018-04-08T12:38:19.581Z,3.17
2018-04-08T12:44:10.428Z,5.28
2018-04-08T12:50:01.354Z,2.35
2018-04-08T12:55:52.218Z,4.89
2018-04-08T13:01:43.115Z,3.61
2018-04-08T13:07:34.023Z,2.43
2018-04-08T13:13:24.977Z,3.46
2018-04-08T13:19:15.816Z,3.72
2018-04-08T13:25:06.728Z,4.16
2018-04-08T13:30:57.647Z,2.9
2018-04-08T13:36:48.525Z,5.66
2018-04-08T13:42:39.432Z,2.41
2018-04-08T13:48:30.372Z,2.31
2018-04-08T13:54:21.238Z,6.49
2018-04-08T14:00:12.151Z,2.27
2018-04-08T14:06:03.024Z,1.98
2018-04-08T14:11:53.927Z,1.86
2018-04-08T14:17:44.843Z,6.65
2018-04-08T14:23:35.745Z,1.84
2018-04-08T14:29:26.642Z,2.05
2018-04-08T14:35:17.527Z,1.98
2018-04-08T14:41:08.432Z,3.31
2018-04-08T14:46:59.385Z,2.16
2018-04-08T14:52:50.239Z,2.37
2018-04-08T14:58:41.171Z,6.57
2018-04-08T15:04:32.071Z,6.13
2018-04-08T15:10:22.954Z,3.14
2018-04-08T15:16:13.841Z,11.02
2018-04-08T15:22:04.732Z,8.93
2018-04-08T15:27:55.677Z,4.19
2018-04-08T15:33:46.555Z,2.23
2018-04-08T15:39:37.494Z,2.3
2018-04-08T15:45:28.358Z,2.07
2018-04-08T15:51:19.293Z,2.24
2018-04-08T15:57:10.180Z,2.78
2018-04-08T16:03:01.120Z,2.14
2018-04-08T16:08:51.996Z,2.46
2018-04-08T16:14:42.844Z,3.71
2018-04-08T16:20:33.749Z,4.3
2018-04-08T16:26:24.667Z,2.84
2018-04-08T16:32:15.562Z,7.55
2018-04-08T16:38:06.478Z,5.35
2018-04-08T16:43:57.411Z,7.22
2018-04-08T16:49:48.281Z,5.13
2018-04-08T16:55:39.179Z,5.03
2018-04-08T17:01:30.112Z,3.67
2018-04-08T17:07:21.040Z,4.95
2018-04-08T17:13:12.075Z,9.32
2018-04-08T17:19:02.798Z,7.45
2018-04-08T17:24:53.704Z,5.27
2018-04-08T17:30:44.606Z,6.78
2018-04-08T17:36:35.500Z,4.51
2018-04-08T17:42:26.426Z,4.79
2018-04-08T17:48:17.363Z,6.07
2018-04-08T17:54:08.262Z,6.39
2018-04-08T17:59:59.127Z,4.74
2018-04-08T18:05:50.027Z,5.34
2018-04-08T18:11:40.923Z,4.9
2018-04-08T18:17:31.808Z,5.22
2018-04-08T18:23:22.796Z,31.85
2018-04-08T18:29:13.661Z,15.89
2018-04-08T18:35:04.566Z,10.35
2018-04-08T18:40:55.455Z,8.8
2018-04-08T18:46:46.379Z,4.62
2018-04-08T18:52:37.258Z,5.96
2018-04-08T18:58:28.149Z,5.45
2018-04-08T19:04:19.061Z,6.66
2018-04-08T19:10:09.959Z,3.42
2018-04-08T19:16:00.851Z,3.91
2018-04-08T19:21:51.741Z,4.12
2018-04-08T19:27:42.696Z,4.95
2018-04-08T19:33:33.610Z,6.31
2018-04-08T19:39:24.453Z,6.59
2018-04-08T19:45:15.346Z,6.5
2018-04-08T19:51:06.286Z,5.96
2018-04-08T19:56:57.162Z,6.73
2018-04-08T20:02:48.107Z,8.93
2018-04-08T20:08:39.047Z,5.82
2018-04-08T20:14:29.978Z,5.96
2018-04-08T20:20:20.812Z,7.48
2018-04-08T20:26:11.762Z,6.19
2018-04-08T20:32:02.644Z,6.16
2018-04-08T20:37:53.590Z,13.41
2018-04-08T20:43:44.424Z,7.98
2018-04-08T20:49:35.307Z,6.28
2018-04-08T20:55:26.184Z,7.17
2018-04-08T21:01:17.118Z,5.36
2018-04-08T21:07:08.020Z,6.22
2018-04-08T21:12:58.982Z,7.16
2018-04-08T21:18:49.840Z,5.15
2018-04-08T21:24:40.707Z,5.52
2018-04-08T21:30:31.630Z,6.21
2018-04-08T21:36:22.507Z,5.72
2018-04-08T21:42:13.414Z,5.69
2018-04-08T21:48:04.293Z,5.89
2018-04-08T21:53:55.206Z,5.55
2018-04-08T21:59:46.120Z,7.12
2018-04-08T22:05:37.073Z,6.34
2018-04-08T22:11:27.952Z,5.39
2018-04-08T22:17:18.846Z,5.93
2018-04-08T22:23:09.731Z,4.83
2018-04-08T22:29:00.620Z,3.17
2018-04-08T22:34:51.533Z,5.95
2018-04-08T22:40:42.417Z,5.23
2018-04-08T22:46:33.323Z,5.27
2018-04-08T22:52:24.224Z,4.19
2018-04-08T22:58:15.128Z,4.15
2018-04-08T23:04:06.015Z,4.91
2018-04-08T23:09:56.900Z,3.73
2018-04-08T23:15:47.813Z,3.86
2018-04-08T23:21:38.705Z,4.51
2018-04-08T23:27:29.588Z,4.31
2018-04-08T23:33:20.524Z,4.14
2018-04-08T23:39:11.467Z,4.23
2018-04-08T23:45:02.351Z,3.67
2018-04-08T23:50:53.216Z,3.81
2018-04-08T23:56:44.117Z,3.71
